Warsaw, Virginia
Current Conditions -  °F | °C
As of 7:35 AM on Thursday 23 Oct 2014 (Local Time) from KXSA Reporting Station
Overcast Overcast  
Wind Chill: 53°   Ceiling: 3900
Heat Index: 53°   Visibility: 10mi
Dew Point: 39°   Wind: 8mph
Humidity: 61%   Direction: 290°WNW
Pressure: 29.92"   Gusts: 16mph
Location:  37.96°N, 76.76°W
Report Text: KXSA 231135Z AUTO 29007G14KT 250V310 10SM OVC039 12/04 A2992 RMK AO2 T01150041
Loading
Personal Weather Stations






























Interactive Weather Map
Tropical Storm Tracking
New forecast layout! Learn more

10-Day Weather Forecast

Advertisements
Track Severe Weather on mobile